createdAt,value
2018-07-14T00:00:05.792Z,0
2018-07-14T00:01:15.875Z,0
2018-07-14T00:02:25.955Z,0
2018-07-14T00:03:35.827Z,0
2018-07-14T00:04:45.904Z,0
2018-07-14T00:05:56.048Z,0
2018-07-14T00:07:05.872Z,0
2018-07-14T00:08:15.949Z,0
2018-07-14T00:09:26.020Z,0
2018-07-14T00:10:36.088Z,0
2018-07-14T00:11:46.149Z,0
2018-07-14T00:12:56.243Z,0
2018-07-14T00:14:06.062Z,0
2018-07-14T00:15:16.167Z,0
2018-07-14T00:16:26.267Z,0
2018-07-14T00:17:36.335Z,0
2018-07-14T00:18:46.449Z,0
2018-07-14T00:19:56.537Z,0
2018-07-14T00:21:06.133Z,0
2018-07-14T00:22:15.954Z,0
2018-07-14T00:23:25.507Z,0
2018-07-14T00:24:35.712Z,0
2018-07-14T00:25:45.778Z,0
2018-07-14T00:26:55.581Z,0
2018-07-14T00:28:05.385Z,0
2018-07-14T00:29:15.452Z,0
2018-07-14T00:30:25.532Z,0
2018-07-14T00:31:35.604Z,0
2018-07-14T00:32:45.428Z,0
2018-07-14T00:33:55.514Z,0
2018-07-14T00:35:05.310Z,0
2018-07-14T00:36:15.398Z,0
2018-07-14T00:37:25.487Z,0
2018-07-14T00:38:35.603Z,0
2018-07-14T00:39:45.692Z,0
2018-07-14T00:40:55.773Z,0
2018-07-14T00:42:05.583Z,0
2018-07-14T00:43:15.652Z,0
2018-07-14T00:44:25.770Z,0
2018-07-14T00:45:35.826Z,0
2018-07-14T00:46:45.891Z,0
2018-07-14T00:47:55.992Z,0
2018-07-14T00:49:05.801Z,0
2018-07-14T00:50:15.896Z,0
2018-07-14T00:51:25.978Z,0
2018-07-14T00:52:36.050Z,0
2018-07-14T00:53:46.126Z,0
2018-07-14T00:54:55.667Z,0
2018-07-14T00:56:05.475Z,0
2018-07-14T00:57:15.548Z,0
2018-07-14T00:58:25.616Z,0
2018-07-14T00:59:35.464Z,0
2018-07-14T01:00:45.283Z,0
2018-07-14T01:01:55.422Z,0
2018-07-14T01:03:05.485Z,0
2018-07-14T01:04:15.311Z,0
2018-07-14T01:05:25.120Z,0
2018-07-14T01:06:34.928Z,0
2018-07-14T01:07:44.734Z,0
2018-07-14T01:08:54.528Z,0
2018-07-14T01:10:04.344Z,0
2018-07-14T01:11:14.154Z,0
2018-07-14T01:12:24.227Z,0
2018-07-14T01:13:34.045Z,0
2018-07-14T01:14:44.110Z,0
2018-07-14T01:15:54.174Z,0
2018-07-14T01:17:04.243Z,0
2018-07-14T01:18:14.321Z,0
2018-07-14T01:19:23.932Z,0
2018-07-14T01:20:33.728Z,0
2018-07-14T01:21:43.788Z,0
2018-07-14T01:22:53.871Z,0
2018-07-14T01:24:03.953Z,0
2018-07-14T01:25:13.751Z,0
2018-07-14T01:26:23.815Z,0
2018-07-14T01:27:33.658Z,0
2018-07-14T01:28:43.465Z,0
2018-07-14T01:29:53.528Z,0
2018-07-14T01:31:03.591Z,0
2018-07-14T01:32:13.405Z,0
2018-07-14T01:33:23.230Z,0
2018-07-14T01:34:33.293Z,0
2018-07-14T01:35:43.359Z,0
2018-07-14T01:36:53.449Z,0
2018-07-14T01:38:03.258Z,0
2018-07-14T01:39:13.094Z,0
2018-07-14T01:40:23.163Z,0
2018-07-14T01:41:33.245Z,0
2018-07-14T01:42:43.315Z,0
2018-07-14T01:43:53.128Z,0
2018-07-14T01:45:03.207Z,0
2018-07-14T01:46:12.500Z,0
2018-07-14T01:47:22.324Z,0
2018-07-14T01:48:32.442Z,0
2018-07-14T01:49:42.491Z,0
2018-07-14T01:50:52.568Z,0
2018-07-14T01:52:02.640Z,0
2018-07-14T01:53:12.452Z,0
2018-07-14T01:54:22.015Z,0
2018-07-14T01:55:32.087Z,0
2018-07-14T01:56:42.164Z,0
2018-07-14T01:57:52.236Z,0
2018-07-14T01:59:01.508Z,0
2018-07-14T02:00:10.799Z,0
2018-07-14T02:01:20.886Z,0
2018-07-14T02:02:30.685Z,0
2018-07-14T02:03:40.751Z,0
2018-07-14T02:04:50.832Z,0
2018-07-14T02:06:00.888Z,0
2018-07-14T02:07:10.961Z,0
2018-07-14T02:08:21.027Z,0
2018-07-14T02:09:30.847Z,0
2018-07-14T02:10:40.673Z,0
2018-07-14T02:11:50.762Z,0
2018-07-14T02:13:00.844Z,0
2018-07-14T02:14:10.657Z,0
2018-07-14T02:15:20.469Z,0
2018-07-14T02:16:30.020Z,0
2018-07-14T02:17:39.841Z,0
2018-07-14T02:18:49.910Z,0
2018-07-14T02:19:59.980Z,0
2018-07-14T02:21:10.063Z,0
2018-07-14T02:22:20.143Z,0
2018-07-14T02:23:30.279Z,0
2018-07-14T02:24:40.353Z,0
2018-07-14T02:25:50.419Z,0
2018-07-14T02:27:00.509Z,0
2018-07-14T02:28:10.571Z,0
2018-07-14T02:29:20.624Z,0
2018-07-14T02:30:30.436Z,0
2018-07-14T02:31:40.261Z,4
2018-07-14T02:32:50.089Z,4
2018-07-14T02:34:00.165Z,4
2018-07-14T02:35:10.244Z,0
2018-07-14T02:36:20.085Z,4
2018-07-14T02:37:29.891Z,4
2018-07-14T02:38:39.713Z,4
2018-07-14T02:39:49.780Z,4
2018-07-14T02:40:59.340Z,4
2018-07-14T02:42:09.452Z,4
2018-07-14T02:43:19.019Z,8
2018-07-14T02:44:28.834Z,8
2018-07-14T02:45:38.636Z,8
2018-07-14T02:46:48.720Z,12
2018-07-14T02:47:58.806Z,12
2018-07-14T02:49:08.888Z,16
2018-07-14T02:50:18.949Z,20
2018-07-14T02:51:29.015Z,24
2018-07-14T02:52:38.833Z,24
2018-07-14T02:53:48.919Z,32
2018-07-14T02:54:59.009Z,32
2018-07-14T02:56:09.101Z,40
2018-07-14T02:57:18.944Z,44
2018-07-14T02:58:28.772Z,48
2018-07-14T02:59:39.073Z,56
2018-07-14T03:00:48.309Z,60
2018-07-14T03:01:58.128Z,68
2018-07-14T03:03:07.949Z,80
2018-07-14T03:35:38.501Z,660
2018-07-14T03:36:48.925Z,692
2018-07-14T03:37:59.086Z,720
2018-07-14T03:39:09.157Z,752
2018-07-14T03:40:19.220Z,784
2018-07-14T03:41:29.010Z,816
2018-07-14T03:42:38.813Z,856
2018-07-14T03:43:48.865Z,892
2018-07-14T03:44:58.933Z,924
2018-07-14T03:46:08.998Z,964
2018-07-14T03:47:19.059Z,996
2018-07-14T03:48:29.140Z,1028
2018-07-14T03:49:39.223Z,1064
2018-07-14T03:50:49.294Z,1092
2018-07-14T03:51:59.367Z,1128
2018-07-14T03:53:09.505Z,1160
2018-07-14T03:54:19.571Z,1196
2018-07-14T03:55:29.391Z,1224
2018-07-14T03:56:39.516Z,1260
2018-07-14T03:57:49.332Z,1292
2018-07-14T03:58:59.145Z,1324
2018-07-14T04:00:09.214Z,1356
2018-07-14T04:01:19.294Z,1392
2018-07-14T04:02:29.354Z,1424
2018-07-14T04:03:39.476Z,1460
2018-07-14T04:04:49.579Z,1500
2018-07-14T04:05:59.649Z,1540
2018-07-14T04:07:09.723Z,1584
2018-07-14T04:08:19.792Z,1624
2018-07-14T04:09:29.858Z,1672
2018-07-14T04:10:39.688Z,1708
2018-07-14T04:11:49.835Z,1748
2018-07-14T04:12:59.979Z,1788
2018-07-14T04:14:09.783Z,1820
2018-07-14T04:15:19.664Z,1856
2018-07-14T04:16:29.556Z,1888
2018-07-14T04:17:39.610Z,1920
2018-07-14T04:18:49.680Z,1948
2018-07-14T04:19:59.491Z,1980
2018-07-14T04:21:09.569Z,2012
2018-07-14T04:22:19.436Z,2048
2018-07-14T04:23:29.511Z,2076
2018-07-14T04:24:39.584Z,2108
2018-07-14T04:25:49.659Z,2148
2018-07-14T04:26:59.734Z,3432
2018-07-14T04:28:09.541Z,8772
2018-07-14T04:29:19.370Z,11040
2018-07-14T04:30:29.453Z,10924
2018-07-14T04:31:39.540Z,10656
2018-07-14T04:32:49.612Z,10716
2018-07-14T04:33:59.428Z,10476
2018-07-14T04:35:09.490Z,10324
2018-07-14T04:36:19.571Z,10448
2018-07-14T04:37:29.639Z,10624
2018-07-14T04:38:39.720Z,10772
2018-07-14T04:39:49.536Z,10724
2018-07-14T04:40:59.355Z,10812
2018-07-14T04:42:09.196Z,10860
2018-07-14T04:43:19.284Z,10980
2018-07-14T04:44:29.094Z,10960
2018-07-14T04:45:39.227Z,10840
2018-07-14T04:46:49.309Z,10816
2018-07-14T04:47:59.405Z,10888
2018-07-14T04:49:09.485Z,10816
2018-07-14T04:50:19.567Z,10864
2018-07-14T04:51:29.381Z,10888
2018-07-14T04:52:39.456Z,10748
2018-07-14T04:53:49.539Z,10664
2018-07-14T04:54:59.615Z,10732
2018-07-14T04:56:09.440Z,10792
2018-07-14T04:57:19.534Z,10900
2018-07-14T04:58:29.610Z,11008
2018-07-14T04:59:39.436Z,11012
2018-07-14T05:00:49.507Z,10720
2018-07-14T05:01:59.601Z,10620
2018-07-14T05:03:09.436Z,10636
2018-07-14T05:04:19.264Z,10772
2018-07-14T05:05:29.346Z,10612
2018-07-14T05:06:39.496Z,10372
2018-07-14T05:07:49.310Z,10388
2018-07-14T05:08:59.404Z,10588
2018-07-14T05:10:09.488Z,10136
2018-07-14T05:11:19.313Z,10088
2018-07-14T05:12:29.411Z,10224
2018-07-14T05:13:39.222Z,10444
2018-07-14T05:14:49.033Z,10568
2018-07-14T05:15:58.850Z,10588
2018-07-14T05:17:08.933Z,10572
2018-07-14T05:18:18.761Z,10632
2018-07-14T05:19:28.589Z,10784
2018-07-14T05:20:38.398Z,10852
2018-07-14T05:21:48.479Z,10988
2018-07-14T05:22:58.569Z,10960
2018-07-14T05:24:08.371Z,10980
2018-07-14T05:25:18.463Z,10804
2018-07-14T05:26:28.536Z,10648
2018-07-14T05:27:38.351Z,10588
2018-07-14T05:28:48.639Z,10608
2018-07-14T05:29:58.719Z,10588
2018-07-14T05:31:08.800Z,10544
2018-07-14T05:32:18.863Z,10536
2018-07-14T05:33:28.684Z,10416
2018-07-14T05:34:38.759Z,10216
2018-07-14T05:35:48.575Z,10312
2018-07-14T05:36:58.653Z,10308
2018-07-14T05:38:08.731Z,10280
2018-07-14T05:39:18.288Z,10308
2018-07-14T05:40:28.101Z,10292
2018-07-14T05:41:38.172Z,10244
2018-07-14T05:42:47.976Z,10216
2018-07-14T05:43:58.167Z,10264
2018-07-14T05:45:08.385Z,10104
2018-07-14T05:46:18.475Z,9940
2018-07-14T05:47:28.293Z,9928
2018-07-14T05:48:38.373Z,9888
2018-07-14T05:49:48.195Z,9908
2018-07-14T05:50:58.034Z,9872
2018-07-14T05:52:08.320Z,9892
2018-07-14T05:53:18.575Z,9780
2018-07-14T05:54:28.637Z,9764
2018-07-14T05:55:38.448Z,9828
2018-07-14T05:56:48.530Z,9856
2018-07-14T05:57:58.601Z,9756
2018-07-14T05:59:08.676Z,9696
2018-07-14T06:00:18.824Z,9660
2018-07-14T06:01:28.903Z,9632
2018-07-14T06:02:38.988Z,9520
2018-07-14T06:03:49.069Z,9336
2018-07-14T06:04:59.137Z,9212
2018-07-14T06:06:09.239Z,9184
2018-07-14T06:07:19.315Z,9116
2018-07-14T06:08:29.394Z,9064
2018-07-14T06:09:39.488Z,9016
2018-07-14T06:10:49.331Z,9000
2018-07-14T06:11:59.153Z,8980
2018-07-14T06:13:08.978Z,8916
2018-07-14T06:14:19.356Z,8828
2018-07-14T06:15:29.673Z,8760
2018-07-14T06:16:39.758Z,8724
2018-07-14T06:17:49.841Z,8720
2018-07-14T06:18:59.904Z,8712
2018-07-14T06:20:09.992Z,8652
2018-07-14T06:21:20.116Z,8632
2018-07-14T06:22:30.215Z,8436
2018-07-14T06:23:40.300Z,6948
2018-07-14T06:24:50.153Z,4948
2018-07-14T06:26:00.234Z,4356
2018-07-14T06:27:09.780Z,4532
2018-07-14T06:28:19.877Z,4624
2018-07-14T06:29:29.952Z,5764
2018-07-14T06:30:40.042Z,7072
2018-07-14T06:31:50.122Z,7600
2018-07-14T06:32:59.975Z,7696
2018-07-14T06:34:09.821Z,7744
2018-07-14T06:35:19.886Z,7716
2018-07-14T06:36:29.969Z,7664
2018-07-14T06:37:40.052Z,7632
2018-07-14T06:38:50.546Z,7572
2018-07-14T06:40:00.632Z,7504
2018-07-14T06:41:10.727Z,7460
2018-07-14T06:42:20.833Z,7372
2018-07-14T06:43:30.647Z,7300
2018-07-14T06:44:40.633Z,7236
2018-07-14T06:45:50.546Z,7152
2018-07-14T06:47:00.624Z,7060
2018-07-14T06:48:10.705Z,6924
2018-07-14T06:49:20.518Z,6812
2018-07-14T06:50:30.595Z,6700
2018-07-14T06:51:40.667Z,6616
2018-07-14T06:52:50.817Z,6492
2018-07-14T06:54:00.963Z,6396
2018-07-14T06:55:10.517Z,6312
2018-07-14T06:56:20.578Z,6208
2018-07-14T06:57:30.391Z,6120
2018-07-14T06:58:40.465Z,6036
2018-07-14T06:59:50.538Z,5952
2018-07-14T07:01:00.630Z,5868
2018-07-14T07:02:10.703Z,5788
2018-07-14T07:03:20.920Z,5716
2018-07-14T07:04:30.806Z,5644
2018-07-14T07:05:40.639Z,5564
2018-07-14T07:06:50.735Z,5468
2018-07-14T07:08:00.565Z,5380
2018-07-14T07:09:10.113Z,5304
2018-07-14T07:10:19.923Z,5236
2018-07-14T07:11:29.990Z,5168
2018-07-14T07:12:40.088Z,5076
2018-07-14T07:13:50.057Z,4768
2018-07-14T07:15:00.250Z,4428
2018-07-14T07:16:10.329Z,4312
2018-07-14T07:17:20.395Z,4284
2018-07-14T07:18:30.468Z,4280
2018-07-14T07:19:40.539Z,4284
2018-07-14T07:20:50.644Z,4284
2018-07-14T07:22:00.713Z,4276
2018-07-14T07:23:10.799Z,4292
2018-07-14T07:24:20.863Z,4300
2018-07-14T07:25:30.967Z,4316
2018-07-14T07:26:40.599Z,4320
2018-07-14T07:27:50.407Z,4320
2018-07-14T07:29:00.576Z,4320
2018-07-14T07:30:10.380Z,4332
2018-07-14T07:31:20.469Z,4332
2018-07-14T07:32:30.544Z,4332
2018-07-14T07:33:40.622Z,4340
2018-07-14T07:34:51.025Z,4344
2018-07-14T07:36:01.112Z,4352
2018-07-14T07:37:11.194Z,4352
2018-07-14T07:38:21.327Z,4356
2018-07-14T07:39:31.422Z,4368
2018-07-14T07:40:41.488Z,4360
2018-07-14T07:41:51.053Z,4372
2018-07-14T07:43:01.132Z,4388
2018-07-14T07:44:11.198Z,4404
2018-07-14T07:45:21.285Z,4416
2018-07-14T07:46:31.371Z,4428
2018-07-14T07:47:41.454Z,4440
2018-07-14T07:48:51.527Z,4452
2018-07-14T07:50:00.820Z,4464
2018-07-14T07:51:10.896Z,4472
2018-07-14T07:52:20.191Z,4480
2018-07-14T07:53:30.254Z,4488
2018-07-14T07:54:40.351Z,4500
2018-07-14T07:55:50.451Z,4516
2018-07-14T07:57:00.263Z,4524
2018-07-14T07:58:10.343Z,4528
2018-07-14T07:59:20.167Z,4532
2018-07-14T08:00:30.271Z,4544
2018-07-14T08:01:40.149Z,4548
2018-07-14T08:02:50.235Z,4556
2018-07-14T08:04:00.061Z,4568
2018-07-14T08:05:10.132Z,4584
2018-07-14T08:06:20.203Z,4596
2018-07-14T08:07:30.310Z,4604
2018-07-14T08:08:40.694Z,4612
2018-07-14T08:09:50.952Z,4668
2018-07-14T08:11:01.078Z,4672
2018-07-14T08:12:10.913Z,4692
2018-07-14T08:13:21.060Z,4736
2018-07-14T08:14:30.882Z,4672
2018-07-14T08:15:40.996Z,4676
2018-07-14T08:16:50.808Z,4684
2018-07-14T08:18:00.895Z,4684
2018-07-14T08:19:10.984Z,4692
2018-07-14T08:20:21.065Z,4696
2018-07-14T08:21:31.157Z,4696
2018-07-14T08:22:41.111Z,4704
2018-07-14T08:23:51.309Z,4712
2018-07-14T08:25:01.169Z,4716
2018-07-14T08:26:10.997Z,4720
2018-07-14T08:27:20.873Z,4728
2018-07-14T08:28:30.974Z,4736
2018-07-14T08:29:41.045Z,4744
2018-07-14T08:30:51.137Z,4756
2018-07-14T08:32:00.692Z,4772
2018-07-14T08:33:10.493Z,4784
2018-07-14T08:34:20.614Z,4796
2018-07-14T08:35:30.436Z,4804
2018-07-14T08:36:40.500Z,4812
2018-07-14T08:37:50.312Z,4820
2018-07-14T08:39:00.126Z,4820
2018-07-14T08:40:09.942Z,4828
2018-07-14T08:41:19.747Z,4832
2018-07-14T08:42:29.314Z,4836
2018-07-14T08:43:39.454Z,4844
2018-07-14T08:44:49.056Z,4840
2018-07-14T08:45:59.146Z,4840
2018-07-14T08:47:09.227Z,4860
2018-07-14T08:48:19.300Z,4864
2018-07-14T08:49:29.113Z,4880
2018-07-14T08:50:39.654Z,4876
2018-07-14T08:51:49.469Z,4884
2018-07-14T08:52:59.611Z,4900
2018-07-14T08:54:09.686Z,4912
2018-07-14T08:55:19.781Z,4896
2018-07-14T08:56:29.602Z,4920
2018-07-14T08:57:39.421Z,4916
2018-07-14T08:58:49.240Z,4924
2018-07-14T08:59:59.310Z,4920
2018-07-14T09:01:09.400Z,4936
2018-07-14T09:02:19.226Z,4944
2018-07-14T09:03:29.379Z,4948
2018-07-14T09:04:38.982Z,4944
2018-07-14T09:05:49.125Z,4952
2018-07-14T09:06:58.938Z,4944
2018-07-14T09:08:08.743Z,4960
2018-07-14T09:09:18.551Z,4964
2018-07-14T09:10:28.440Z,4976
2018-07-14T09:11:38.249Z,4980
2018-07-14T09:12:48.329Z,4980
2018-07-14T09:13:58.411Z,4992
2018-07-14T09:15:08.232Z,5000
2018-07-14T09:16:18.304Z,4996
2018-07-14T09:17:28.176Z,5008
2018-07-14T09:18:38.274Z,5032
2018-07-14T09:19:48.350Z,5040
2018-07-14T09:20:58.143Z,5060
2018-07-14T09:22:08.228Z,5068
2018-07-14T09:23:18.311Z,5072
2018-07-14T09:24:28.397Z,5088
2018-07-14T09:25:38.482Z,5092
2018-07-14T09:26:48.556Z,5100
2018-07-14T09:27:58.641Z,5108
2018-07-14T09:29:08.719Z,5124
2018-07-14T09:30:18.802Z,5140
2018-07-14T09:31:28.695Z,5128
2018-07-14T09:32:38.992Z,5128
2018-07-14T09:33:49.280Z,5128
2018-07-14T09:34:59.173Z,5128
2018-07-14T09:36:09.282Z,5140
2018-07-14T09:37:19.366Z,5136
2018-07-14T09:38:29.451Z,5140
2018-07-14T09:39:39.276Z,5172
2018-07-14T09:40:49.149Z,5172
2018-07-14T09:41:58.954Z,5196
2018-07-14T09:43:09.046Z,5176
2018-07-14T09:44:19.112Z,5132
2018-07-14T09:45:28.949Z,5116
2018-07-14T09:46:39.049Z,5080
2018-07-14T09:47:49.560Z,5160
2018-07-14T09:48:59.462Z,5232
2018-07-14T09:50:09.540Z,5252
2018-07-14T09:51:19.614Z,5248
2018-07-14T09:52:29.744Z,5268
2018-07-14T09:53:39.827Z,5288
2018-07-14T09:54:49.902Z,5300
2018-07-14T09:55:59.996Z,5296
2018-07-14T09:57:10.129Z,5292
2018-07-14T09:58:20.275Z,5324
2018-07-14T09:59:30.364Z,5292
2018-07-14T10:00:40.453Z,5336
2018-07-14T10:01:50.537Z,5376
2018-07-14T10:03:00.346Z,5388
2018-07-14T10:04:10.210Z,5384
2018-07-14T10:05:20.278Z,5388
2018-07-14T10:06:30.391Z,5400
2018-07-14T10:07:40.485Z,5428
2018-07-14T10:08:50.309Z,5428
2018-07-14T10:10:00.266Z,5456
2018-07-14T10:11:10.137Z,5464
2018-07-14T10:12:19.700Z,5488
2018-07-14T10:13:29.524Z,5460
2018-07-14T10:14:39.349Z,5556
2018-07-14T10:15:48.909Z,5596
2018-07-14T10:16:59.017Z,5592
2018-07-14T10:18:09.122Z,5620
2018-07-14T10:19:18.956Z,5652
2018-07-14T10:20:29.060Z,5676
2018-07-14T10:21:39.148Z,5688
2018-07-14T10:22:49.232Z,5780
2018-07-14T10:23:59.324Z,5888
2018-07-14T10:25:09.399Z,6016
2018-07-14T10:26:19.756Z,6136
2018-07-14T10:27:29.836Z,6276
2018-07-14T10:28:39.664Z,6476
2018-07-14T10:29:49.496Z,6628
2018-07-14T10:30:59.594Z,6760
2018-07-14T10:32:09.453Z,6892
2018-07-14T10:33:19.562Z,6948
2018-07-14T10:34:29.631Z,6880
2018-07-14T10:35:39.712Z,6812
2018-07-14T10:36:49.527Z,6600
2018-07-14T10:37:59.662Z,6548
2018-07-14T10:39:09.758Z,6512
2018-07-14T10:40:19.848Z,6636
2018-07-14T10:41:29.698Z,6696
2018-07-14T10:42:40.142Z,6752
2018-07-14T10:43:50.232Z,6776
2018-07-14T10:45:00.109Z,6776
2018-07-14T10:46:10.220Z,6936
2018-07-14T10:47:20.302Z,7044
2018-07-14T10:48:30.373Z,7072
2018-07-14T10:49:40.452Z,7276
2018-07-14T10:50:50.322Z,7368
2018-07-14T10:52:00.157Z,7608
2018-07-14T10:53:10.249Z,7812
2018-07-14T10:54:20.369Z,7972
2018-07-14T10:55:30.202Z,8076
2018-07-14T10:56:40.298Z,8168
2018-07-14T10:57:50.376Z,8224
2018-07-14T10:59:00.449Z,8156
2018-07-14T11:00:10.534Z,7912
2018-07-14T11:01:20.370Z,7628
2018-07-14T11:02:30.448Z,7236
2018-07-14T11:03:40.270Z,7164
2018-07-14T11:04:50.356Z,7056
2018-07-14T11:06:00.180Z,6924
2018-07-14T11:07:10.268Z,6848
2018-07-14T11:08:20.367Z,6744
2018-07-14T11:09:30.189Z,6684
2018-07-14T11:10:39.996Z,6652
2018-07-14T11:11:49.829Z,6720
2018-07-14T11:12:59.654Z,6712
2018-07-14T11:14:09.506Z,6560
2018-07-14T11:15:19.352Z,6568
2018-07-14T11:16:28.922Z,6664
2018-07-14T11:17:39.006Z,6776
2018-07-14T11:18:49.165Z,6788
2018-07-14T11:19:58.996Z,6908
2018-07-14T11:21:08.800Z,7120
2018-07-14T11:22:18.897Z,7304
2018-07-14T11:23:28.981Z,7492
2018-07-14T11:24:38.800Z,7720
2018-07-14T11:25:48.891Z,7856
2018-07-14T11:26:58.721Z,5972
2018-07-14T11:28:08.848Z,7572
2018-07-14T11:29:18.666Z,5732
2018-07-14T11:30:28.902Z,4188
2018-07-14T11:31:39.004Z,4008
2018-07-14T11:32:49.089Z,4068
2018-07-14T11:33:59.176Z,4460
2018-07-14T11:35:09.283Z,4672
2018-07-14T11:36:19.376Z,4104
2018-07-14T11:37:29.490Z,3920
2018-07-14T11:38:39.633Z,3800
2018-07-14T11:39:49.472Z,3784
2018-07-14T11:40:59.351Z,3784
2018-07-14T11:42:09.348Z,3816
2018-07-14T11:43:19.340Z,3924
2018-07-14T11:44:29.437Z,4200
2018-07-14T11:45:39.524Z,4976
2018-07-14T11:46:49.661Z,4636
2018-07-14T11:48:00.069Z,4340
2018-07-14T11:49:10.387Z,4256
2018-07-14T11:50:20.505Z,4228
2018-07-14T11:51:30.602Z,4208
2018-07-14T11:52:40.702Z,4184
2018-07-14T11:53:50.785Z,4188
2018-07-14T11:55:00.943Z,4228
2018-07-14T11:56:11.051Z,4260
2018-07-14T11:57:21.132Z,4260
2018-07-14T11:58:30.943Z,4268
2018-07-14T11:59:40.786Z,4620
2018-07-14T12:00:50.945Z,5664
2018-07-14T12:02:01.207Z,5708
2018-07-14T12:03:11.407Z,5256
2018-07-14T12:04:21.242Z,4852
2018-07-14T12:05:31.352Z,4948
2018-07-14T12:06:41.440Z,5088
2018-07-14T12:07:51.628Z,5680
2018-07-14T12:09:01.734Z,5968
2018-07-14T12:10:11.836Z,5092
2018-07-14T12:11:21.917Z,4864
2018-07-14T12:12:31.741Z,4752
2018-07-14T12:13:41.689Z,4704
2018-07-14T12:14:51.533Z,4828
2018-07-14T12:16:01.638Z,5096
2018-07-14T12:17:11.476Z,5592
2018-07-14T12:18:21.618Z,5776
2018-07-14T12:19:31.434Z,7856
2018-07-14T12:20:41.264Z,7492
2018-07-14T12:21:51.364Z,8576
2018-07-14T12:23:01.448Z,8384
2018-07-14T12:24:11.538Z,7400
2018-07-14T12:25:21.639Z,4804
2018-07-14T12:26:31.724Z,5056
2018-07-14T12:27:41.911Z,7940
2018-07-14T12:28:52.072Z,8000
2018-07-14T12:30:02.172Z,5372
2018-07-14T12:31:12.247Z,8188
2018-07-14T12:32:22.368Z,8384
2018-07-14T12:33:32.475Z,8380
2018-07-14T12:34:42.307Z,8284
2018-07-14T12:35:52.385Z,8368
2018-07-14T12:37:02.236Z,8392
2018-07-14T12:38:12.072Z,8524
2018-07-14T12:39:21.912Z,8472
2018-07-14T12:40:32.029Z,8540
2018-07-14T12:41:41.859Z,7120
2018-07-14T12:42:51.929Z,8800
2018-07-14T12:44:02.024Z,6740
2018-07-14T12:45:11.838Z,8540
2018-07-14T12:46:21.674Z,8932
2018-07-14T12:47:31.772Z,8864
2018-07-14T12:48:41.862Z,8856
2018-07-14T12:49:51.160Z,8924
2018-07-14T12:51:00.746Z,8916
2018-07-14T12:52:10.573Z,8956
2018-07-14T12:53:20.676Z,8984
2018-07-14T12:54:30.783Z,8972
2018-07-14T12:55:40.874Z,8996
2018-07-14T12:56:50.969Z,9036
2018-07-14T12:58:01.061Z,9200
2018-07-14T12:59:11.292Z,9428
2018-07-14T13:00:21.499Z,9444
2018-07-14T13:01:31.588Z,9524
2018-07-14T13:02:41.430Z,9560
2018-07-14T13:03:51.542Z,9480
2018-07-14T13:05:01.643Z,8796
2018-07-14T13:06:11.473Z,9140
2018-07-14T13:07:21.322Z,9324
2018-07-14T13:08:31.143Z,9896
2018-07-14T13:09:41.233Z,9912
2018-07-14T13:10:51.056Z,10500
2018-07-14T13:12:01.183Z,10548
2018-07-14T13:13:11.019Z,10420
2018-07-14T13:14:20.857Z,10268
2018-07-14T13:15:30.672Z,8048
2018-07-14T13:16:40.769Z,10016
2018-07-14T13:17:50.860Z,9792
2018-07-14T13:19:00.957Z,9920
2018-07-14T13:20:11.062Z,9936
2018-07-14T13:21:21.169Z,10084
2018-07-14T13:22:31.310Z,7608
2018-07-14T13:23:41.385Z,7484
2018-07-14T13:24:51.492Z,7580
2018-07-14T13:26:01.324Z,7920
2018-07-14T13:27:11.424Z,7516
2018-07-14T13:28:21.611Z,7476
2018-07-14T13:29:31.707Z,7580
2018-07-14T13:30:41.813Z,7632
2018-07-14T13:31:51.637Z,7588
2018-07-14T13:33:01.715Z,7492
2018-07-14T13:34:11.801Z,7516
2018-07-14T13:35:21.617Z,9736
2018-07-14T13:36:31.924Z,6964
2018-07-14T13:37:42.044Z,6404
2018-07-14T13:38:59.240Z,6176
2018-07-14T13:40:08.922Z,8688
2018-07-14T13:41:19.001Z,6208
2018-07-14T13:42:29.097Z,8044
2018-07-14T13:43:39.175Z,7700
2018-07-14T13:44:49.029Z,5296
2018-07-14T13:45:58.864Z,5376
2018-07-14T13:47:08.953Z,7944
2018-07-14T13:48:19.037Z,7908
2018-07-14T13:49:29.126Z,7840
2018-07-14T13:50:38.934Z,7736
2018-07-14T13:51:48.808Z,7652
2018-07-14T13:52:58.646Z,7620
2018-07-14T13:54:08.734Z,7612
2018-07-14T13:55:18.816Z,7424
2018-07-14T13:56:28.909Z,7272
2018-07-14T13:57:39.017Z,7024
2018-07-14T13:58:49.107Z,4224
2018-07-14T13:59:59.173Z,3860
2018-07-14T14:01:09.260Z,3620
2018-07-14T14:02:19.092Z,3464
2018-07-14T14:03:29.161Z,3336
2018-07-14T14:04:39.245Z,3224
2018-07-14T14:05:49.074Z,3148
2018-07-14T14:06:59.165Z,3728
2018-07-14T14:08:08.987Z,2940
2018-07-14T14:09:19.072Z,2724
2018-07-14T14:10:29.155Z,2568
2018-07-14T14:11:39.245Z,2428
2018-07-14T14:12:49.342Z,2316
2018-07-14T14:13:59.159Z,2208
2018-07-14T14:15:09.250Z,2132
2018-07-14T14:16:19.325Z,2088
2018-07-14T14:17:29.407Z,2040
2018-07-14T14:18:39.485Z,1976
2018-07-14T14:19:49.655Z,1904
2018-07-14T14:20:59.832Z,1812
2018-07-14T14:22:09.649Z,1728
2018-07-14T14:23:19.736Z,1636
2018-07-14T14:24:29.819Z,1552
2018-07-14T14:25:39.917Z,1444
2018-07-14T14:26:50.019Z,1340
2018-07-14T14:28:00.105Z,1248
2018-07-14T14:29:09.932Z,1188
2018-07-14T14:30:20.033Z,1156
2018-07-14T14:31:29.925Z,1152
2018-07-14T14:32:40.012Z,1180
2018-07-14T14:33:50.114Z,1240
2018-07-14T14:35:00.239Z,1328
2018-07-14T14:36:10.372Z,1448
2018-07-14T14:37:20.457Z,1572
2018-07-14T14:38:30.268Z,1724
2018-07-14T14:39:40.611Z,1860
2018-07-14T14:40:50.700Z,1968
2018-07-14T14:42:00.542Z,2060
2018-07-14T14:43:10.098Z,2140
2018-07-14T14:44:19.945Z,2240
2018-07-14T14:45:30.027Z,2336
2018-07-14T14:46:40.098Z,2476
2018-07-14T14:47:49.901Z,2640
2018-07-14T14:48:59.991Z,2864
2018-07-14T14:50:10.125Z,3172
2018-07-14T14:51:20.240Z,3596
2018-07-14T14:52:30.313Z,4284
2018-07-14T14:53:40.387Z,5020
2018-07-14T14:54:50.480Z,5060
2018-07-14T14:56:00.718Z,5464
2018-07-14T14:57:10.739Z,5608
2018-07-14T14:58:20.870Z,6848
2018-07-14T14:59:31.000Z,7296
2018-07-14T15:00:41.208Z,7216
2018-07-14T15:01:51.298Z,7096
2018-07-14T15:03:01.392Z,6860
2018-07-14T15:04:11.472Z,6528
2018-07-14T15:05:21.540Z,4500
2018-07-14T15:06:31.631Z,6100
2018-07-14T15:07:41.744Z,4692
2018-07-14T15:08:51.586Z,4476
2018-07-14T15:10:01.158Z,4568
2018-07-14T15:11:11.000Z,4328
2018-07-14T15:12:21.100Z,4416
2018-07-14T15:13:31.243Z,4108
2018-07-14T15:14:41.320Z,5988
2018-07-14T15:15:50.955Z,6036
2018-07-14T15:17:01.041Z,5956
2018-07-14T15:18:11.117Z,5724
2018-07-14T15:19:21.257Z,5536
2018-07-14T15:20:31.340Z,5368
2018-07-14T15:21:41.160Z,5208
2018-07-14T15:22:51.248Z,5048
2018-07-14T15:24:01.356Z,4868
2018-07-14T15:25:11.462Z,4736
2018-07-14T15:26:21.568Z,4640
2018-07-14T15:27:31.716Z,4572
2018-07-14T15:28:41.562Z,3492
2018-07-14T15:29:51.645Z,4460
2018-07-14T15:31:01.484Z,4436
2018-07-14T15:32:11.720Z,4392
2018-07-14T15:33:23.017Z,4396
2018-07-14T15:34:33.059Z,4368
2018-07-14T15:35:42.615Z,4368
2018-07-14T15:36:52.768Z,4328
2018-07-14T15:38:02.857Z,4300
2018-07-14T15:39:12.926Z,4264
2018-07-14T15:40:22.779Z,4268
2018-07-14T15:41:32.676Z,4244
2018-07-14T15:42:42.997Z,4196
2018-07-14T15:43:53.077Z,4156
2018-07-14T15:45:03.390Z,4132
2018-07-14T15:46:13.214Z,4132
2018-07-14T15:47:23.303Z,4112
2018-07-14T15:48:33.389Z,4056
2018-07-14T15:49:43.458Z,4020
2018-07-14T15:50:53.558Z,4000
2018-07-14T15:52:03.369Z,3980
2018-07-14T15:53:13.450Z,3960
2018-07-14T15:54:23.592Z,3952
2018-07-14T15:55:33.664Z,3912
2018-07-14T15:56:43.746Z,3876
2018-07-14T15:57:53.585Z,3840
2018-07-14T15:59:03.667Z,3800
2018-07-14T16:00:14.082Z,3756
2018-07-14T16:01:24.323Z,3716
2018-07-14T16:02:34.389Z,3684
2018-07-14T16:03:44.476Z,3656
2018-07-14T16:04:54.540Z,3624
2018-07-14T16:06:04.657Z,3604
2018-07-14T16:07:14.743Z,3580
2018-07-14T16:08:24.296Z,3548
2018-07-14T16:09:34.108Z,3524
2018-07-14T16:10:44.190Z,3504
2018-07-14T16:11:54.499Z,3476
2018-07-14T16:13:04.645Z,3452
2018-07-14T16:14:14.474Z,3432
2018-07-14T16:15:24.301Z,3404
2018-07-14T16:16:34.381Z,3376
2018-07-14T16:17:44.470Z,3320